createdAt,value
2023-09-09T00:01:07.358Z,8.50
2023-09-09T00:06:12.107Z,8.50
2023-09-09T00:11:15.051Z,9.30
2023-09-09T00:16:17.721Z,9.40
2023-09-09T00:21:21.499Z,9.90
2023-09-09T00:26:26.315Z,9.10
2023-09-09T00:31:29.194Z,8.90
2023-09-09T00:36:31.822Z,9.00
2023-09-09T00:41:34.410Z,8.70
2023-09-09T00:46:37.621Z,8.10
2023-09-09T00:51:40.248Z,8.60
2023-09-09T00:56:43.528Z,8.00
2023-09-09T01:01:46.376Z,8.70
2023-09-09T01:06:49.774Z,7.90
2023-09-09T01:11:53.920Z,7.70
2023-09-09T01:16:57.338Z,7.90
2023-09-09T01:22:04.107Z,8.20
2023-09-09T01:27:07.285Z,7.30
2023-09-09T01:32:10.173Z,7.60
2023-09-09T01:37:12.780Z,7.30
2023-09-09T01:42:18.369Z,7.80
2023-09-09T01:47:20.940Z,7.10
2023-09-09T01:52:23.807Z,7.30
2023-09-09T01:57:27.561Z,7.70
2023-09-09T02:02:30.172Z,7.30
2023-09-09T02:07:32.918Z,6.40
2023-09-09T02:12:35.618Z,7.40
2023-09-09T02:17:38.416Z,7.30
2023-09-09T02:22:41.250Z,7.10
2023-09-09T02:27:44.028Z,6.50
2023-09-09T02:32:49.975Z,6.80
2023-09-09T02:37:52.791Z,6.70
2023-09-09T02:42:55.396Z,6.60
2023-09-09T02:47:58.052Z,7.20
2023-09-09T02:53:00.726Z,7.30
2023-09-09T02:58:03.650Z,7.20
2023-09-09T03:03:06.583Z,7.10
2023-09-09T03:08:09.831Z,6.90
2023-09-09T03:13:12.414Z,6.40
2023-09-09T03:18:15.296Z,6.60
2023-09-09T03:23:18.058Z,7.40
2023-09-09T03:28:20.981Z,6.80
2023-09-09T03:33:24.035Z,6.90
2023-09-09T03:38:27.076Z,6.70
2023-09-09T03:43:29.970Z,6.70
2023-09-09T03:48:32.729Z,6.90
2023-09-09T03:53:36.012Z,5.80
2023-09-09T03:58:39.346Z,6.90
2023-09-09T04:03:42.435Z,6.60
2023-09-09T04:08:46.677Z,6.80
2023-09-09T04:13:50.706Z,7.00
2023-09-09T04:18:54.137Z,6.80
2023-09-09T04:23:56.884Z,6.80
2023-09-09T04:29:00.998Z,6.60
2023-09-09T04:34:03.793Z,6.30
2023-09-09T04:39:06.553Z,6.90
2023-09-09T04:44:10.560Z,6.40
2023-09-09T04:49:14.173Z,5.90
2023-09-09T04:54:18.966Z,5.70
2023-09-09T04:59:21.758Z,5.70
2023-09-09T05:04:24.474Z,6.00
2023-09-09T05:09:27.959Z,5.70
2023-09-09T05:14:30.734Z,6.70
2023-09-09T05:19:34.277Z,5.80
2023-09-09T05:24:37.023Z,6.30
2023-09-09T05:29:39.913Z,6.50
2023-09-09T05:34:42.902Z,6.70
2023-09-09T05:39:45.939Z,6.40
2023-09-09T05:44:48.673Z,6.40
2023-09-09T05:49:51.492Z,6.90
2023-09-09T05:54:54.404Z,6.20
2023-09-09T05:59:57.175Z,6.10
2023-09-09T06:05:00.107Z,6.60
2023-09-09T06:10:02.979Z,7.20
2023-09-09T06:15:06.347Z,5.90
2023-09-09T06:20:10.690Z,6.30
2023-09-09T06:25:13.826Z,6.60
2023-09-09T06:30:16.677Z,5.80
2023-09-09T06:35:19.244Z,6.50
2023-09-09T06:40:22.296Z,6.20
2023-09-09T06:45:24.872Z,6.50
2023-09-09T06:50:27.563Z,5.90
2023-09-09T06:55:30.652Z,6.20
2023-09-09T07:00:33.515Z,6.30
2023-09-09T07:05:36.562Z,6.00
2023-09-09T07:10:39.875Z,7.10
2023-09-09T07:15:42.500Z,5.10
2023-09-09T07:20:47.746Z,6.00
2023-09-09T07:25:50.730Z,6.90
2023-09-09T07:30:54.397Z,7.10
2023-09-09T07:35:57.188Z,9.10
2023-09-09T07:41:00.302Z,9.40
2023-09-09T07:46:03.766Z,9.10
2023-09-09T07:51:06.727Z,9.40
2023-09-09T07:56:09.904Z,10.40
2023-09-09T08:01:20.341Z,10.60
2023-09-09T08:06:23.022Z,10.10
2023-09-09T08:11:27.780Z,10.60
2023-09-09T08:16:33.621Z,11.40
2023-09-09T08:21:36.984Z,12.10
2023-09-09T08:26:40.504Z,11.80
2023-09-09T08:31:47.109Z,11.90
2023-09-09T08:36:54.184Z,10.40
2023-09-09T08:42:46.164Z,10.50
2023-09-09T08:47:51.249Z,11.20
2023-09-09T08:52:57.730Z,11.00
2023-09-09T08:58:02.538Z,10.50
2023-09-09T09:03:05.785Z,10.00
2023-09-09T09:08:10.456Z,11.90
2023-09-09T09:13:13.470Z,11.30
2023-09-09T09:18:16.987Z,9.30
2023-09-09T09:23:22.595Z,9.10
2023-09-09T09:28:33.140Z,9.30
2023-09-09T09:33:39.040Z,9.40
2023-09-09T09:38:42.222Z,9.20
2023-09-09T09:43:49.952Z,9.10
2023-09-09T09:48:52.584Z,8.60
2023-09-09T09:53:55.534Z,9.50
2023-09-09T09:58:58.234Z,8.40
2023-09-09T10:04:06.965Z,9.10
2023-09-09T10:09:45.659Z,8.10
2023-09-09T10:14:50.690Z,8.90
2023-09-09T10:19:55.903Z,8.00
2023-09-09T10:24:59.443Z,8.50
2023-09-09T10:30:03.932Z,9.10
2023-09-09T10:35:08.341Z,7.80
2023-09-09T10:40:12.347Z,8.20
2023-09-09T10:45:29.156Z,7.90
2023-09-09T10:50:53.973Z,7.30
2023-09-09T10:55:59.666Z,8.20
2023-09-09T11:01:03.547Z,8.10
2023-09-09T11:06:07.784Z,7.50
2023-09-09T11:11:18.775Z,7.40
2023-09-09T11:16:28.562Z,8.10
2023-09-09T11:21:53.422Z,7.20
2023-09-09T11:26:56.719Z,7.90
2023-09-09T11:32:00.284Z,7.90
2023-09-09T11:37:04.570Z,8.10
2023-09-09T11:42:08.371Z,7.90
2023-09-09T11:47:15.284Z,7.90
2023-09-09T11:52:22.320Z,7.90
2023-09-09T11:57:25.651Z,6.80
2023-09-09T12:02:31.757Z,7.30
2023-09-09T12:07:37.419Z,7.60
2023-09-09T12:12:43.949Z,7.30
2023-09-09T12:17:46.754Z,6.60
2023-09-09T12:22:51.849Z,7.50
2023-09-09T12:27:55.233Z,7.20
2023-09-09T12:33:19.553Z,7.40
2023-09-09T12:38:23.405Z,7.20
2023-09-09T12:43:29.084Z,6.80
2023-09-09T12:48:35.117Z,7.30
2023-09-09T12:53:38.111Z,8.00
2023-09-09T12:58:41.776Z,6.90
2023-09-09T13:03:45.243Z,7.60
2023-09-09T13:08:48.375Z,8.10
2023-09-09T13:13:53.637Z,7.90
2023-09-09T13:18:59.709Z,8.10
2023-09-09T13:24:02.410Z,8.00
2023-09-09T13:29:05.065Z,7.10
2023-09-09T13:34:07.656Z,7.50
2023-09-09T13:39:10.235Z,7.80
2023-09-09T13:44:13.045Z,8.30
2023-09-09T13:49:15.636Z,8.50
2023-09-09T13:54:18.438Z,8.10
2023-09-09T13:59:21.449Z,7.90
2023-09-09T14:04:24.573Z,8.40
2023-09-09T14:09:27.291Z,7.90
2023-09-09T14:14:29.879Z,7.80
2023-09-09T14:19:32.671Z,6.80
2023-09-09T14:24:35.410Z,7.00
2023-09-09T14:29:38.193Z,6.70
2023-09-09T14:34:40.795Z,7.10
2023-09-09T14:39:43.442Z,6.40
2023-09-09T14:44:47.902Z,6.90
2023-09-09T14:49:50.624Z,7.00
2023-09-09T14:54:53.252Z,6.40
2023-09-09T14:59:56.019Z,7.40
2023-09-09T15:04:58.656Z,7.50
2023-09-09T15:10:01.318Z,8.20
2023-09-09T15:15:04.295Z,7.50
2023-09-09T15:20:07.620Z,7.10
2023-09-09T15:25:10.451Z,7.40
2023-09-09T15:30:13.877Z,6.90
2023-09-09T15:35:16.665Z,7.30
2023-09-09T15:40:19.340Z,8.00
2023-09-09T15:45:22.015Z,7.20
2023-09-09T15:50:24.727Z,7.00
2023-09-09T15:55:29.677Z,7.90
2023-09-09T16:00:32.827Z,7.90
2023-09-09T16:05:35.755Z,6.80
2023-09-09T16:10:38.722Z,7.00
2023-09-09T16:15:41.380Z,6.90
2023-09-09T16:20:44.130Z,7.30
2023-09-09T16:25:47.319Z,7.40
2023-09-09T16:30:50.228Z,7.80
2023-09-09T16:35:52.849Z,6.70
2023-09-09T16:40:55.631Z,7.00
2023-09-09T16:45:58.270Z,7.40
2023-09-09T16:51:00.913Z,6.80
2023-09-09T16:56:03.775Z,7.90
2023-09-09T17:01:06.525Z,7.30
2023-09-09T17:06:09.198Z,7.90
2023-09-09T17:11:11.818Z,7.70
2023-09-09T17:16:15.001Z,7.10
2023-09-09T17:21:17.656Z,8.20
2023-09-09T17:26:20.246Z,7.30
2023-09-09T17:31:22.925Z,8.60
2023-09-09T17:36:25.779Z,8.00
2023-09-09T17:41:28.455Z,8.50
2023-09-09T17:46:32.168Z,8.40
2023-09-09T17:51:35.698Z,8.20
2023-09-09T17:56:38.279Z,8.20
2023-09-09T18:01:41.362Z,7.90
2023-09-09T18:06:45.107Z,8.30
2023-09-09T18:11:47.764Z,8.50
2023-09-09T18:16:50.672Z,8.50
2023-09-09T18:21:55.873Z,8.80
2023-09-09T18:26:59.188Z,9.00
2023-09-09T18:32:02.791Z,9.20
2023-09-09T18:37:06.265Z,9.40
2023-09-09T18:42:09.228Z,9.60
2023-09-09T18:47:14.029Z,9.80
2023-09-09T18:52:16.914Z,10.40
2023-09-09T18:57:19.790Z,10.20
2023-09-09T19:02:23.965Z,11.20
2023-09-09T19:07:34.984Z,11.10
2023-09-09T19:12:38.521Z,11.00
2023-09-09T19:17:43.150Z,11.60
2023-09-09T19:22:50.176Z,11.60
2023-09-09T19:27:53.990Z,11.40
2023-09-09T19:32:56.817Z,11.80
2023-09-09T19:38:01.929Z,10.70
2023-09-09T19:43:05.411Z,11.70
2023-09-09T19:48:09.848Z,12.30
2023-09-09T19:53:16.311Z,11.60
2023-09-09T19:58:19.775Z,11.10
2023-09-09T20:03:23.310Z,12.50
2023-09-09T20:08:26.507Z,11.20
2023-09-09T20:13:29.738Z,11.10
2023-09-09T20:18:32.992Z,12.00
2023-09-09T20:23:35.728Z,11.60
2023-09-09T20:28:40.360Z,12.10
2023-09-09T20:33:44.049Z,12.30
2023-09-09T20:38:48.710Z,11.90
2023-09-09T20:43:51.928Z,11.90
2023-09-09T20:48:54.974Z,11.50
2023-09-09T20:53:58.078Z,10.90
2023-09-09T20:59:01.318Z,11.10
2023-09-09T21:04:04.649Z,10.70
2023-09-09T21:09:07.519Z,10.90
2023-09-09T21:14:10.656Z,11.10
2023-09-09T21:19:13.411Z,11.50
2023-09-09T21:24:16.614Z,11.00
2023-09-09T21:29:19.213Z,11.30
2023-09-09T21:34:22.078Z,12.40
2023-09-09T21:39:27.158Z,12.00
2023-09-09T21:44:29.843Z,12.00
2023-09-09T21:49:33.441Z,11.10
2023-09-09T21:54:36.002Z,11.80
2023-09-09T21:59:38.624Z,11.20
2023-09-09T22:04:42.386Z,11.80
2023-09-09T22:09:45.434Z,11.10
2023-09-09T22:14:48.596Z,12.60
2023-09-09T22:19:51.273Z,11.10
2023-09-09T22:24:54.262Z,12.00
2023-09-09T22:29:57.788Z,11.60
2023-09-09T22:35:06.329Z,11.60
2023-09-09T22:40:10.295Z,11.60
2023-09-09T22:45:12.982Z,12.10
2023-09-09T22:50:16.401Z,11.30
2023-09-09T22:55:19.060Z,12.00
2023-09-09T23:00:21.842Z,11.60
2023-09-09T23:05:24.714Z,11.00
2023-09-09T23:10:28.335Z,11.80
2023-09-09T23:15:30.940Z,11.20
2023-09-09T23:20:34.552Z,11.20
2023-09-09T23:25:37.184Z,12.00
2023-09-09T23:30:39.810Z,11.70
2023-09-09T23:35:43.103Z,11.00
2023-09-09T23:40:45.961Z,11.70
2023-09-09T23:45:48.736Z,10.80
2023-09-09T23:50:51.421Z,11.30
2023-09-09T23:55:55.615Z,11.40
